createdAt,value
2019-03-23T00:00:31.797Z,11.00
2019-03-23T00:01:31.760Z,10.97
2019-03-23T00:02:31.730Z,10.94
2019-03-23T00:03:31.721Z,10.88
2019-03-23T00:04:31.717Z,10.76
2019-03-23T00:05:31.673Z,10.76
2019-03-23T00:06:31.663Z,10.73
2019-03-23T00:07:31.662Z,10.68
2019-03-23T00:08:31.617Z,10.71
2019-03-23T00:09:31.621Z,10.78
2019-03-23T00:10:31.596Z,10.74
2019-03-23T00:11:31.622Z,10.71
2019-03-23T00:12:31.565Z,10.63
2019-03-23T00:13:31.554Z,10.63
2019-03-23T00:14:31.516Z,10.59
2019-03-23T00:15:31.491Z,10.47
2019-03-23T00:16:31.476Z,10.48
2019-03-23T00:17:31.453Z,10.51
2019-03-23T00:18:31.447Z,10.40
2019-03-23T00:19:31.433Z,10.34
2019-03-23T00:20:31.403Z,10.40
2019-03-23T00:21:31.381Z,10.36
2019-03-23T00:22:31.358Z,10.38
2019-03-23T00:23:31.353Z,10.34
2019-03-23T00:24:31.342Z,10.27
2019-03-23T00:25:31.319Z,10.26
2019-03-23T00:26:31.286Z,10.25
2019-03-23T00:27:31.283Z,10.32
2019-03-23T00:28:31.263Z,10.27
2019-03-23T00:29:31.240Z,10.30
2019-03-23T00:30:31.237Z,10.18
2019-03-23T00:31:31.192Z,10.22
2019-03-23T00:32:31.184Z,10.15
2019-03-23T00:33:31.155Z,10.17
2019-03-23T00:34:31.159Z,10.20
2019-03-23T00:35:31.148Z,10.14
2019-03-23T00:36:40.797Z,10.25
2019-03-23T00:37:31.084Z,10.36
2019-03-23T00:38:31.067Z,10.36
2019-03-23T00:39:31.045Z,10.36
2019-03-23T00:40:31.042Z,10.34
2019-03-23T00:41:31.751Z,10.44
2019-03-23T00:42:31.013Z,10.33
2019-03-23T00:43:30.971Z,10.34
2019-03-23T00:44:30.957Z,10.36
2019-03-23T00:45:30.943Z,10.40
2019-03-23T00:46:31.036Z,10.36
2019-03-23T00:47:30.895Z,10.27
2019-03-23T00:48:30.953Z,10.23
2019-03-23T00:49:30.861Z,10.30
2019-03-23T00:50:30.839Z,10.23
2019-03-23T00:51:30.829Z,10.18
2019-03-23T00:52:30.811Z,10.23
2019-03-23T00:53:30.801Z,10.18
2019-03-23T00:54:30.783Z,10.22
2019-03-23T00:55:30.750Z,10.23
2019-03-23T00:56:30.750Z,10.25
2019-03-23T00:57:30.721Z,10.25
2019-03-23T00:58:30.693Z,10.41
2019-03-23T00:59:30.683Z,10.44
2019-03-23T01:00:30.652Z,10.36
2019-03-23T01:01:30.649Z,10.48
2019-03-23T01:02:30.619Z,10.42
2019-03-23T01:03:30.598Z,10.44
2019-03-23T01:04:30.579Z,10.40
2019-03-23T01:05:30.567Z,10.41
2019-03-23T01:06:30.574Z,10.41
2019-03-23T01:07:30.533Z,10.40
2019-03-23T01:08:30.509Z,10.30
2019-03-23T01:09:30.492Z,10.38
2019-03-23T01:10:30.506Z,10.32
2019-03-23T01:11:31.226Z,10.34
2019-03-23T01:12:30.448Z,10.30
2019-03-23T01:13:30.417Z,10.25
2019-03-23T01:14:30.390Z,10.23
2019-03-23T01:15:30.373Z,10.20
2019-03-23T01:16:30.359Z,10.20
2019-03-23T01:17:30.341Z,10.11
2019-03-23T01:18:30.355Z,10.07
2019-03-23T01:19:30.296Z,10.01
2019-03-23T01:20:30.283Z,9.89
2019-03-23T01:21:30.261Z,9.89
2019-03-23T01:22:30.241Z,9.91
2019-03-23T01:23:30.230Z,9.83
2019-03-23T01:24:30.219Z,9.84
2019-03-23T01:25:30.186Z,9.74
2019-03-23T01:26:30.169Z,9.69
2019-03-23T01:27:30.140Z,9.61
2019-03-23T01:28:30.125Z,9.58
2019-03-23T01:29:30.107Z,9.60
2019-03-23T01:30:30.111Z,9.51
2019-03-23T01:31:30.091Z,9.43
2019-03-23T01:32:30.091Z,9.43
2019-03-23T01:33:30.075Z,9.46
2019-03-23T01:34:30.028Z,9.33
2019-03-23T01:35:30.005Z,9.28
2019-03-23T01:36:29.972Z,9.10
2019-03-23T01:37:29.972Z,8.98
2019-03-23T01:38:30.014Z,8.95
2019-03-23T01:39:29.938Z,8.87
2019-03-23T01:40:29.953Z,8.92
2019-03-23T01:41:29.878Z,8.86
2019-03-23T01:42:29.949Z,8.80
2019-03-23T01:43:29.836Z,8.70
2019-03-23T01:44:29.821Z,8.77
2019-03-23T01:45:29.817Z,8.77
2019-03-23T01:46:29.777Z,8.80
2019-03-23T01:47:29.761Z,8.73
2019-03-23T01:48:29.734Z,8.70
2019-03-23T01:49:29.716Z,8.56
2019-03-23T01:50:29.702Z,8.63
2019-03-23T01:51:29.695Z,8.52
2019-03-23T01:52:29.665Z,8.43
2019-03-23T01:53:29.641Z,8.45
2019-03-23T01:54:29.637Z,8.43
2019-03-23T01:55:29.605Z,8.37
2019-03-23T01:56:29.585Z,8.28
2019-03-23T01:57:29.565Z,8.22
2019-03-23T01:58:29.548Z,8.25
2019-03-23T01:59:29.528Z,8.16
2019-03-23T02:00:29.522Z,8.12
2019-03-23T02:01:29.485Z,8.04
2019-03-23T02:02:29.460Z,8.18
2019-03-23T02:03:29.444Z,8.08
2019-03-23T02:04:29.446Z,8.08
2019-03-23T02:05:29.406Z,8.16
2019-03-23T02:06:29.383Z,8.11
2019-03-23T02:07:29.363Z,8.08
2019-03-23T02:08:29.345Z,8.10
2019-03-23T02:09:29.342Z,8.05
2019-03-23T02:10:29.310Z,8.20
2019-03-23T02:11:29.301Z,8.08
2019-03-23T02:12:29.268Z,8.02
2019-03-23T02:13:29.248Z,8.02
2019-03-23T02:14:29.248Z,8.02
2019-03-23T02:15:29.208Z,8.08
2019-03-23T02:16:29.188Z,7.97
2019-03-23T02:17:29.168Z,7.95
2019-03-23T02:18:29.147Z,8.01
2019-03-23T02:19:29.138Z,7.97
2019-03-23T02:20:29.128Z,8.04
2019-03-23T02:21:29.085Z,7.97
2019-03-23T02:22:29.084Z,7.97
2019-03-23T02:23:29.053Z,8.02
2019-03-23T02:24:29.030Z,7.95
2019-03-23T02:25:29.012Z,7.95
2019-03-23T02:26:28.996Z,7.95
2019-03-23T02:27:28.970Z,7.93
2019-03-23T02:28:28.965Z,8.02
2019-03-23T02:29:28.949Z,8.04
2019-03-23T02:30:28.910Z,8.05
2019-03-23T02:31:28.892Z,7.97
2019-03-23T02:32:28.867Z,8.02
2019-03-23T02:33:28.852Z,8.00
2019-03-23T02:34:28.849Z,8.00
2019-03-23T02:35:28.804Z,8.05
2019-03-23T02:36:28.790Z,8.08
2019-03-23T02:37:28.768Z,8.02
2019-03-23T02:38:28.757Z,8.12
2019-03-23T02:39:28.726Z,8.05
2019-03-23T02:40:29.241Z,8.11
2019-03-23T02:41:28.693Z,8.04
2019-03-23T02:42:28.671Z,8.07
2019-03-23T02:43:28.652Z,8.00
2019-03-23T02:44:28.630Z,8.05
2019-03-23T02:45:30.348Z,8.10
2019-03-23T02:46:28.587Z,8.22
2019-03-23T02:47:28.570Z,8.16
2019-03-23T02:48:28.551Z,8.22
2019-03-23T02:49:28.527Z,8.25
2019-03-23T02:50:28.511Z,8.28
2019-03-23T02:51:28.506Z,8.25
2019-03-23T02:52:28.474Z,8.34
2019-03-23T02:53:28.451Z,8.30
2019-03-23T02:54:28.434Z,8.28
2019-03-23T02:55:28.413Z,8.37
2019-03-23T02:56:28.393Z,8.23
2019-03-23T02:57:28.398Z,8.40
2019-03-23T02:58:28.355Z,8.38
2019-03-23T02:59:28.330Z,8.41
2019-03-23T03:00:28.313Z,8.36
2019-03-23T03:01:28.310Z,8.33
2019-03-23T03:02:28.288Z,8.36
2019-03-23T03:03:28.270Z,8.43
2019-03-23T03:04:28.241Z,8.34
2019-03-23T03:05:28.210Z,8.36
2019-03-23T03:06:28.193Z,8.33
2019-03-23T03:07:40.743Z,8.33
2019-03-23T03:08:28.164Z,8.38
2019-03-23T03:09:28.142Z,8.38
2019-03-23T03:10:28.124Z,8.37
2019-03-23T03:11:28.097Z,8.40
2019-03-23T03:12:28.086Z,8.37
2019-03-23T03:13:28.069Z,8.40
2019-03-23T03:14:28.036Z,8.40
2019-03-23T03:15:28.022Z,8.34
2019-03-23T03:16:28.003Z,8.37
2019-03-23T03:17:27.976Z,8.38
2019-03-23T03:18:27.974Z,8.48
2019-03-23T03:19:27.942Z,8.37
2019-03-23T03:20:27.919Z,8.40
2019-03-23T03:21:27.901Z,8.38
2019-03-23T03:22:27.879Z,8.36
2019-03-23T03:23:28.708Z,8.44
2019-03-23T03:24:27.841Z,8.43
2019-03-23T03:25:27.835Z,8.43
2019-03-23T03:26:27.799Z,8.40
2019-03-23T03:27:27.778Z,8.52
2019-03-23T03:28:27.778Z,8.41
2019-03-23T03:29:27.748Z,8.48
2019-03-23T03:30:27.722Z,8.40
2019-03-23T03:31:27.725Z,8.48
2019-03-23T03:32:27.683Z,8.50
2019-03-23T03:33:27.662Z,8.48
2019-03-23T03:34:27.646Z,8.52
2019-03-23T03:35:27.626Z,8.52
2019-03-23T03:36:30.136Z,8.48
2019-03-23T03:37:27.602Z,8.55
2019-03-23T03:38:27.570Z,8.53
2019-03-23T03:39:27.547Z,8.53
2019-03-23T03:40:27.527Z,8.48
2019-03-23T03:41:27.525Z,8.48
2019-03-23T03:42:27.485Z,8.58
2019-03-23T03:43:27.469Z,8.52
2019-03-23T03:44:27.461Z,8.59
2019-03-23T03:45:27.428Z,8.53
2019-03-23T03:46:27.417Z,8.58
2019-03-23T03:47:27.390Z,8.55
2019-03-23T03:48:27.381Z,8.58
2019-03-23T03:49:27.349Z,8.53
2019-03-23T03:50:27.328Z,8.55
2019-03-23T03:51:27.310Z,8.50
2019-03-23T03:52:27.288Z,8.58
2019-03-23T03:53:27.270Z,8.55
2019-03-23T03:54:27.270Z,8.56
2019-03-23T03:55:27.229Z,8.59
2019-03-23T03:56:27.211Z,8.63
2019-03-23T03:57:27.191Z,8.62
2019-03-23T03:58:27.174Z,8.55
2019-03-23T03:59:29.789Z,8.66
2019-03-23T04:00:27.154Z,8.56
2019-03-23T04:01:27.118Z,8.61
2019-03-23T04:02:27.168Z,8.70
2019-03-23T04:03:27.081Z,8.66
2019-03-23T04:04:27.055Z,8.71
2019-03-23T04:05:27.095Z,8.73
2019-03-23T04:06:27.024Z,8.63
2019-03-23T04:07:26.999Z,8.73
2019-03-23T04:08:26.978Z,8.80
2019-03-23T04:09:26.999Z,8.80
2019-03-23T04:10:26.940Z,8.81
2019-03-23T04:11:26.968Z,8.77
2019-03-23T04:12:26.898Z,8.80
2019-03-23T04:13:27.833Z,8.84
2019-03-23T04:14:26.862Z,8.86
2019-03-23T04:15:26.842Z,8.91
2019-03-23T04:16:26.825Z,8.84
2019-03-23T04:17:26.835Z,8.84
2019-03-23T04:18:26.783Z,8.83
2019-03-23T04:19:26.765Z,8.95
2019-03-23T04:20:26.742Z,8.79
2019-03-23T04:21:26.724Z,8.81
2019-03-23T04:22:26.741Z,8.84
2019-03-23T04:23:26.689Z,8.77
2019-03-23T04:24:26.665Z,8.77
2019-03-23T04:25:26.647Z,8.80
2019-03-23T04:26:26.630Z,8.86
2019-03-23T04:27:26.607Z,8.80
2019-03-23T04:28:26.603Z,8.81
2019-03-23T04:29:26.567Z,8.79
2019-03-23T04:30:26.581Z,8.89
2019-03-23T04:31:26.530Z,8.84
2019-03-23T04:32:26.508Z,8.86
2019-03-23T04:33:26.487Z,8.84
2019-03-23T04:34:26.499Z,8.94
2019-03-23T04:35:26.452Z,8.89
2019-03-23T04:36:26.430Z,8.87
2019-03-23T04:37:26.412Z,8.86
2019-03-23T04:38:26.392Z,8.83
2019-03-23T04:39:26.374Z,8.86
2019-03-23T04:40:26.375Z,8.86
2019-03-23T04:41:26.334Z,8.89
2019-03-23T04:42:27.262Z,8.92
2019-03-23T04:43:27.257Z,8.86
2019-03-23T04:44:26.278Z,8.94
2019-03-23T04:45:26.273Z,8.96
2019-03-23T04:46:26.235Z,8.98
2019-03-23T04:47:26.217Z,8.95
2019-03-23T04:48:26.197Z,8.92
2019-03-23T04:49:26.177Z,8.94
2019-03-23T04:50:27.220Z,8.98
2019-03-23T04:51:26.153Z,8.94
2019-03-23T04:52:26.112Z,8.96
2019-03-23T04:53:26.098Z,8.89
2019-03-23T04:54:26.080Z,8.84
2019-03-23T04:55:26.057Z,8.87
2019-03-23T04:56:26.038Z,8.94
2019-03-23T04:57:26.046Z,8.87
2019-03-23T04:58:26.782Z,8.87
2019-03-23T04:59:25.986Z,8.91
2019-03-23T05:00:25.960Z,8.98
2019-03-23T05:01:25.942Z,8.99
2019-03-23T05:02:25.927Z,9.02
2019-03-23T05:03:25.970Z,8.98
2019-03-23T05:04:25.885Z,8.87
2019-03-23T05:05:25.871Z,8.98
2019-03-23T05:06:25.866Z,8.95
2019-03-23T05:07:25.822Z,8.94
2019-03-23T05:08:33.254Z,8.94
2019-03-23T05:09:25.827Z,8.91
2019-03-23T05:10:25.769Z,9.01
2019-03-23T05:11:25.750Z,8.98
2019-03-23T05:12:25.725Z,9.02
2019-03-23T05:13:25.728Z,9.02
2019-03-23T05:14:25.690Z,9.11
2019-03-23T05:15:25.670Z,9.05
2019-03-23T05:16:25.648Z,9.15
2019-03-23T05:17:25.628Z,9.02
2019-03-23T05:18:25.610Z,9.01
2019-03-23T05:19:25.607Z,9.04
2019-03-23T05:20:25.573Z,9.11
2019-03-23T05:21:25.557Z,9.11
2019-03-23T05:22:25.533Z,9.10
2019-03-23T05:23:25.515Z,9.11
2019-03-23T05:24:25.498Z,8.99
2019-03-23T05:25:25.500Z,9.08
2019-03-23T05:26:25.453Z,9.05
2019-03-23T05:27:25.436Z,8.98
2019-03-23T05:28:25.418Z,9.02
2019-03-23T05:29:25.416Z,9.04
2019-03-23T05:30:25.375Z,9.01
2019-03-23T05:31:25.389Z,8.95
2019-03-23T05:32:25.352Z,9.14
2019-03-23T05:33:25.317Z,9.05
2019-03-23T05:34:25.323Z,9.08
2019-03-23T05:35:25.279Z,9.08
2019-03-23T05:36:25.262Z,9.05
2019-03-23T05:37:25.242Z,9.13
2019-03-23T05:38:25.236Z,9.08
2019-03-23T05:39:25.215Z,9.14
2019-03-23T05:40:25.180Z,9.04
2019-03-23T05:41:25.165Z,9.18
2019-03-23T05:42:25.139Z,9.14
2019-03-23T05:43:25.122Z,9.14
2019-03-23T05:44:25.116Z,9.17
2019-03-23T05:45:25.081Z,9.20
2019-03-23T05:46:25.063Z,9.14
2019-03-23T05:47:25.049Z,9.17
2019-03-23T05:48:25.024Z,9.17
2019-03-23T05:49:25.021Z,9.17
2019-03-23T05:50:24.987Z,9.14
2019-03-23T05:51:24.969Z,9.20
2019-03-23T05:52:24.946Z,9.18
2019-03-23T05:53:24.927Z,9.23
2019-03-23T05:54:24.923Z,9.14
2019-03-23T05:55:24.885Z,9.14
2019-03-23T05:56:24.871Z,9.18
2019-03-23T05:57:24.849Z,9.20
2019-03-23T05:58:24.840Z,9.24
2019-03-23T05:59:24.827Z,9.26
2019-03-23T06:00:24.806Z,9.20
2019-03-23T06:01:24.774Z,9.13
2019-03-23T06:02:24.758Z,9.24
2019-03-23T06:03:24.743Z,9.29
2019-03-23T06:04:24.734Z,9.20
2019-03-23T06:05:24.839Z,9.21
2019-03-23T06:06:24.693Z,9.18
2019-03-23T06:07:24.678Z,9.13
2019-03-23T06:08:24.639Z,9.17
2019-03-23T06:09:24.619Z,9.17
2019-03-23T06:10:24.616Z,9.23
2019-03-23T06:11:24.581Z,9.26
2019-03-23T06:12:24.564Z,9.32
2019-03-23T06:13:24.558Z,9.29
2019-03-23T06:14:24.522Z,9.23
2019-03-23T06:15:24.504Z,9.24
2019-03-23T06:16:24.500Z,9.26
2019-03-23T06:17:24.461Z,9.28
2019-03-23T06:18:24.445Z,9.20
2019-03-23T06:19:24.420Z,9.13
2019-03-23T06:20:24.406Z,9.20
2019-03-23T06:21:24.384Z,9.31
2019-03-23T06:22:24.383Z,9.29
2019-03-23T06:23:24.345Z,9.28
2019-03-23T06:24:24.344Z,9.18
2019-03-23T06:25:24.306Z,9.26
2019-03-23T06:26:24.296Z,9.26
2019-03-23T06:27:24.268Z,9.28
2019-03-23T06:28:24.268Z,9.33
2019-03-23T06:29:24.243Z,9.32
2019-03-23T06:30:24.210Z,9.26
2019-03-23T06:31:24.184Z,9.32
2019-03-23T06:32:24.172Z,9.35
2019-03-23T06:33:24.148Z,9.29
2019-03-23T06:34:24.151Z,9.35
2019-03-23T06:35:24.111Z,9.31
2019-03-23T06:36:24.087Z,9.33
2019-03-23T06:37:24.068Z,9.28
2019-03-23T06:38:24.061Z,9.33
2019-03-23T06:39:24.059Z,9.28
2019-03-23T06:40:24.033Z,9.24
2019-03-23T06:41:24.008Z,9.35
2019-03-23T06:42:23.972Z,9.28
2019-03-23T06:43:23.962Z,9.36
2019-03-23T06:44:23.950Z,9.35
2019-03-23T06:45:23.929Z,9.39
2019-03-23T06:46:23.913Z,9.38
2019-03-23T06:47:23.880Z,9.38
2019-03-23T06:48:23.859Z,9.40
2019-03-23T06:49:23.838Z,9.40
2019-03-23T06:50:23.819Z,9.46
2019-03-23T06:51:23.820Z,9.39
2019-03-23T06:52:23.782Z,9.39
2019-03-23T06:53:23.770Z,9.43
2019-03-23T06:54:23.751Z,9.46
2019-03-23T06:55:23.743Z,9.53
2019-03-23T06:56:23.706Z,9.46
2019-03-23T06:57:23.702Z,9.53
2019-03-23T06:58:23.667Z,9.46
2019-03-23T06:59:23.651Z,9.58
2019-03-23T07:00:23.622Z,9.60
2019-03-23T07:01:23.615Z,9.64
2019-03-23T07:02:23.583Z,9.57
2019-03-23T07:03:23.579Z,9.58
2019-03-23T07:04:23.553Z,9.57
2019-03-23T07:05:23.528Z,9.60
2019-03-23T07:06:23.520Z,9.60
2019-03-23T07:07:23.504Z,9.60
2019-03-23T07:08:31.483Z,9.60
2019-03-23T07:09:23.460Z,9.58
2019-03-23T07:10:23.434Z,9.60
2019-03-23T07:11:23.414Z,9.56
2019-03-23T07:12:23.412Z,9.57
2019-03-23T07:13:23.402Z,9.58
2019-03-23T07:14:23.357Z,9.60
2019-03-23T07:15:23.339Z,9.68
2019-03-23T07:16:24.922Z,9.71
2019-03-23T07:17:23.300Z,9.81
2019-03-23T07:18:23.294Z,9.74
2019-03-23T07:19:23.265Z,9.65
2019-03-23T07:20:23.263Z,9.74
2019-03-23T07:21:23.223Z,9.69
2019-03-23T07:22:23.204Z,9.75
2019-03-23T07:23:23.180Z,9.74
2019-03-23T07:24:23.166Z,9.75
2019-03-23T07:25:23.147Z,9.66
2019-03-23T07:26:23.142Z,9.81
2019-03-23T07:27:23.112Z,9.74
2019-03-23T07:28:23.094Z,9.79
2019-03-23T07:29:23.086Z,9.78
2019-03-23T07:30:23.050Z,9.84
2019-03-23T07:31:23.032Z,9.84
2019-03-23T07:32:23.030Z,9.87
2019-03-23T07:33:23.021Z,9.90
2019-03-23T07:34:22.976Z,9.94
2019-03-23T07:35:22.961Z,9.91
2019-03-23T07:36:22.934Z,9.83
2019-03-23T07:37:22.916Z,9.87
2019-03-23T07:38:22.898Z,9.94
2019-03-23T07:39:27.158Z,9.87
2019-03-23T07:40:22.858Z,9.99
2019-03-23T07:41:22.838Z,9.86
2019-03-23T07:42:22.820Z,9.90
2019-03-23T07:43:22.818Z,9.99
2019-03-23T07:44:22.785Z,9.89
2019-03-23T07:45:22.768Z,9.90
2019-03-23T07:46:22.768Z,9.97
2019-03-23T07:47:22.723Z,10.07
2019-03-23T07:48:22.706Z,9.97
2019-03-23T07:49:22.690Z,10.04
2019-03-23T07:50:22.671Z,10.02
2019-03-23T07:51:22.651Z,10.12
2019-03-23T07:52:22.657Z,10.11
2019-03-23T07:53:22.613Z,10.11
2019-03-23T07:54:22.594Z,10.12
2019-03-23T07:55:22.626Z,10.11
2019-03-23T07:56:22.554Z,10.12
2019-03-23T07:57:22.540Z,10.11
2019-03-23T07:58:22.540Z,10.14
2019-03-23T07:59:22.510Z,10.17
2019-03-23T08:00:22.506Z,10.12
2019-03-23T08:01:22.465Z,10.12
2019-03-23T08:02:22.444Z,10.23
2019-03-23T08:03:22.443Z,10.29
2019-03-23T08:04:22.408Z,10.27
2019-03-23T08:05:22.385Z,10.26
2019-03-23T08:06:22.377Z,10.26
2019-03-23T08:07:22.350Z,10.32
2019-03-23T08:08:22.331Z,10.40
2019-03-23T08:09:23.586Z,10.41
2019-03-23T08:10:22.287Z,10.41
2019-03-23T08:11:22.282Z,10.41
2019-03-23T08:12:22.275Z,10.41
2019-03-23T08:13:22.288Z,10.41
2019-03-23T08:14:22.217Z,10.40
2019-03-23T08:15:22.198Z,10.36
2019-03-23T08:16:22.179Z,10.38
2019-03-23T08:17:22.165Z,10.42
2019-03-23T08:18:22.162Z,10.40
2019-03-23T08:19:22.127Z,10.45
2019-03-23T08:20:22.118Z,10.41
2019-03-23T08:21:22.090Z,10.38
2019-03-23T08:22:22.069Z,10.47
2019-03-23T08:23:22.048Z,10.52
2019-03-23T08:24:22.054Z,10.47
2019-03-23T08:25:22.028Z,10.51
2019-03-23T08:26:21.999Z,10.51
2019-03-23T08:27:21.980Z,10.59
2019-03-23T08:28:21.966Z,10.55
2019-03-23T08:29:21.939Z,10.59
2019-03-23T08:30:21.942Z,10.59
2019-03-23T08:31:21.899Z,10.56
2019-03-23T08:32:21.903Z,10.67
2019-03-23T08:33:21.861Z,10.74
2019-03-23T08:34:21.842Z,10.73
2019-03-23T08:35:21.827Z,10.73
2019-03-23T08:36:21.807Z,10.76
2019-03-23T08:37:21.805Z,10.64
2019-03-23T08:38:21.777Z,10.66
2019-03-23T08:39:21.746Z,10.63
2019-03-23T08:40:21.735Z,10.71
2019-03-23T08:41:21.715Z,10.64
2019-03-23T08:42:21.941Z,10.63
2019-03-23T08:43:21.698Z,10.64
2019-03-23T08:44:21.695Z,10.68
2019-03-23T08:45:21.639Z,10.70
2019-03-23T08:46:21.635Z,10.64
2019-03-23T08:47:21.602Z,10.66
2019-03-23T08:48:21.587Z,10.64
2019-03-23T08:49:21.563Z,10.71
2019-03-23T08:50:21.565Z,10.79
2019-03-23T08:51:21.528Z,10.76
2019-03-23T08:52:21.509Z,10.68
2019-03-23T08:53:21.489Z,10.64
2019-03-23T08:54:21.473Z,10.60
2019-03-23T08:55:21.998Z,10.64
2019-03-23T08:56:21.453Z,10.66
2019-03-23T08:57:21.413Z,10.66
2019-03-23T08:58:21.416Z,10.59
2019-03-23T08:59:21.384Z,10.51
2019-03-23T09:00:21.362Z,10.53
2019-03-23T09:01:21.339Z,10.56
2019-03-23T09:02:21.885Z,10.55
2019-03-23T09:03:21.308Z,10.61
2019-03-23T09:04:21.293Z,10.63
2019-03-23T09:05:21.267Z,10.63
2019-03-23T09:06:21.272Z,10.63
2019-03-23T09:07:21.245Z,10.66
2019-03-23T09:08:21.210Z,10.68
2019-03-23T09:09:21.198Z,10.74
2019-03-23T09:10:21.186Z,10.71
2019-03-23T09:11:21.163Z,10.71
2019-03-23T09:12:21.154Z,10.73
2019-03-23T09:13:21.116Z,10.70
2019-03-23T09:14:23.395Z,10.68
2019-03-23T09:15:21.095Z,10.70
2019-03-23T09:16:21.076Z,10.74
2019-03-23T09:17:21.054Z,10.73
2019-03-23T09:18:21.038Z,10.73
2019-03-23T09:19:21.011Z,10.73
2019-03-23T09:20:20.989Z,10.85
2019-03-23T09:21:20.970Z,10.84
2019-03-23T09:22:20.949Z,10.84
2019-03-23T09:23:20.961Z,10.78
2019-03-23T09:24:20.914Z,10.86
2019-03-23T09:25:20.895Z,10.71
2019-03-23T09:26:20.884Z,10.73
2019-03-23T09:27:20.863Z,10.74
2019-03-23T09:28:20.839Z,10.70
2019-03-23T09:29:20.856Z,10.73
2019-03-23T09:30:20.814Z,10.74
2019-03-23T09:31:20.801Z,10.68
2019-03-23T09:32:20.775Z,10.73
2019-03-23T09:33:20.748Z,10.81
2019-03-23T09:34:20.727Z,10.73
2019-03-23T09:35:20.722Z,10.76
2019-03-23T09:36:22.888Z,10.78
2019-03-23T09:37:20.699Z,10.85
2019-03-23T09:38:20.651Z,10.78
2019-03-23T09:39:20.638Z,10.76
2019-03-23T09:40:20.622Z,10.79
2019-03-23T09:41:20.594Z,10.79
2019-03-23T09:42:20.586Z,10.88
2019-03-23T09:43:20.591Z,10.85
2019-03-23T09:44:20.547Z,10.89
2019-03-23T09:45:20.535Z,10.92
2019-03-23T09:46:20.502Z,11.00
2019-03-23T09:47:20.479Z,11.07
2019-03-23T09:48:20.465Z,11.07
2019-03-23T09:49:22.095Z,11.11
2019-03-23T09:50:20.425Z,11.14
2019-03-23T09:51:20.406Z,11.09
2019-03-23T09:52:20.392Z,11.09
2019-03-23T09:53:20.388Z,11.00
2019-03-23T09:54:20.370Z,10.96
2019-03-23T09:55:20.367Z,10.99
2019-03-23T09:56:20.342Z,11.02
2019-03-23T09:57:20.305Z,11.04
2019-03-23T09:58:20.276Z,11.06
2019-03-23T09:59:20.276Z,11.03
2019-03-23T10:00:20.242Z,11.03
2019-03-23T10:01:20.237Z,11.04
2019-03-23T10:02:20.200Z,11.00
2019-03-23T10:03:20.185Z,10.99
2019-03-23T10:04:20.178Z,11.11
2019-03-23T10:05:20.165Z,11.15
2019-03-23T10:06:20.133Z,11.17
2019-03-23T10:07:20.110Z,11.18
2019-03-23T10:08:20.109Z,11.32
2019-03-23T10:09:20.075Z,11.43
2019-03-23T10:10:22.097Z,11.44
2019-03-23T10:11:20.068Z,11.67
2019-03-23T10:12:20.025Z,11.88
2019-03-23T10:13:19.998Z,12.05
2019-03-23T10:14:19.978Z,12.29
2019-03-23T10:15:19.986Z,12.42
2019-03-23T10:16:19.962Z,12.56
2019-03-23T10:17:19.926Z,12.72
2019-03-23T10:18:19.910Z,12.82
2019-03-23T10:19:19.892Z,12.90
2019-03-23T10:20:19.876Z,12.92
2019-03-23T10:21:19.877Z,13.11
2019-03-23T10:22:19.843Z,13.28
2019-03-23T10:23:19.834Z,13.26
2019-03-23T10:24:19.831Z,13.11
2019-03-23T10:25:19.786Z,13.03
2019-03-23T10:26:19.775Z,13.15
2019-03-23T10:27:19.757Z,13.10
2019-03-23T10:28:19.744Z,13.07
2019-03-23T10:29:19.750Z,13.12
2019-03-23T10:30:19.703Z,13.01
2019-03-23T10:31:19.691Z,12.72
2019-03-23T10:32:19.678Z,12.57
2019-03-23T10:33:19.651Z,12.54
2019-03-23T10:34:19.660Z,12.41
2019-03-23T10:35:19.645Z,12.42
2019-03-23T10:36:19.602Z,12.38
2019-03-23T10:37:19.583Z,12.59
2019-03-23T10:38:19.568Z,12.59
2019-03-23T10:39:19.552Z,12.62
2019-03-23T10:40:19.537Z,12.65
2019-03-23T10:41:19.544Z,12.74
2019-03-23T10:42:19.505Z,12.79
2019-03-23T10:43:19.510Z,12.85
2019-03-23T10:44:19.473Z,12.85
2019-03-23T10:45:19.448Z,12.90
2019-03-23T10:46:19.434Z,13.00
2019-03-23T10:47:19.447Z,13.08
2019-03-23T10:48:19.414Z,13.05
2019-03-23T10:49:19.384Z,13.12
2019-03-23T10:50:19.360Z,13.19
2019-03-23T10:51:19.367Z,13.11
2019-03-23T10:52:19.330Z,13.29
2019-03-23T10:53:23.043Z,13.17
2019-03-23T10:54:19.293Z,13.15
2019-03-23T10:55:19.281Z,13.17
2019-03-23T10:56:19.268Z,13.28
2019-03-23T10:57:19.264Z,13.32
2019-03-23T10:58:19.233Z,13.60
2019-03-23T10:59:19.216Z,13.70
2019-03-23T11:00:19.208Z,13.75
2019-03-23T11:01:19.182Z,13.79
2019-03-23T11:02:19.190Z,14.00
2019-03-23T11:03:19.147Z,14.14
2019-03-23T11:04:19.135Z,14.20
2019-03-23T11:05:19.121Z,14.21
2019-03-23T11:06:19.104Z,14.36
2019-03-23T11:07:19.104Z,14.47
2019-03-23T11:08:19.067Z,14.61
2019-03-23T11:09:19.056Z,14.92
2019-03-23T11:10:19.035Z,15.11
2019-03-23T11:11:19.025Z,14.69
2019-03-23T11:12:19.004Z,14.51
2019-03-23T11:13:19.012Z,14.65
2019-03-23T11:14:18.976Z,14.83
2019-03-23T11:15:18.963Z,14.99
2019-03-23T11:16:18.951Z,15.16
2019-03-23T11:17:18.968Z,15.36
2019-03-23T11:18:18.932Z,15.50
2019-03-23T11:19:18.908Z,15.72
2019-03-23T11:20:18.891Z,15.86
2019-03-23T11:21:18.882Z,15.62
2019-03-23T11:22:18.867Z,15.38
2019-03-23T11:23:18.867Z,15.43
2019-03-23T11:24:18.830Z,15.34
2019-03-23T11:25:18.820Z,15.25
2019-03-23T11:26:18.809Z,15.17
2019-03-23T11:27:18.795Z,14.98
2019-03-23T11:28:18.805Z,14.64
2019-03-23T11:29:18.790Z,14.32
2019-03-23T11:30:18.754Z,14.15
2019-03-23T11:31:18.744Z,14.17
2019-03-23T11:32:18.728Z,14.02
2019-03-23T11:33:18.708Z,14.10
2019-03-23T11:34:18.720Z,14.21
2019-03-23T11:35:18.831Z,14.24
2019-03-23T11:36:18.690Z,14.22
2019-03-23T11:37:18.755Z,14.29
2019-03-23T11:38:18.639Z,14.15
2019-03-23T11:39:18.641Z,14.36
2019-03-23T11:40:18.609Z,14.21
2019-03-23T11:41:18.615Z,14.21
2019-03-23T11:42:18.587Z,14.22
2019-03-23T11:43:18.576Z,14.24
2019-03-23T11:44:18.570Z,14.17
2019-03-23T11:45:18.539Z,14.14
2019-03-23T11:46:18.552Z,14.25
2019-03-23T11:47:18.515Z,14.24
2019-03-23T11:48:18.494Z,14.24
2019-03-23T11:49:18.482Z,14.39
2019-03-23T11:50:18.459Z,14.24
2019-03-23T11:51:18.454Z,14.25
2019-03-23T11:52:18.461Z,14.27
2019-03-23T11:53:18.430Z,14.39
2019-03-23T11:54:18.404Z,14.37
2019-03-23T11:55:18.389Z,14.54
2019-03-23T11:56:18.370Z,14.51
2019-03-23T11:57:18.406Z,14.52
2019-03-23T11:58:18.346Z,14.45
2019-03-23T11:59:18.330Z,14.25
2019-03-23T12:00:18.316Z,14.22
2019-03-23T12:01:18.293Z,14.18
2019-03-23T12:02:18.283Z,14.10
2019-03-23T12:03:18.282Z,14.02
2019-03-23T12:04:18.259Z,14.09
2019-03-23T12:05:18.239Z,14.02
2019-03-23T12:06:18.272Z,14.00
2019-03-23T12:07:18.204Z,14.02
2019-03-23T12:08:18.196Z,13.97
2019-03-23T12:09:18.174Z,13.89
2019-03-23T12:10:18.177Z,13.69
2019-03-23T12:11:18.145Z,13.62
2019-03-23T12:12:18.126Z,13.71
2019-03-23T12:13:18.154Z,13.66
2019-03-23T12:14:18.093Z,13.62
2019-03-23T12:15:18.077Z,13.59
2019-03-23T12:16:18.063Z,13.51
2019-03-23T12:17:18.046Z,13.54
2019-03-23T12:18:18.034Z,13.36
2019-03-23T12:19:18.034Z,13.30
2019-03-23T12:20:17.993Z,13.30
2019-03-23T12:21:18.016Z,13.33
2019-03-23T12:22:17.968Z,13.51
2019-03-23T12:23:17.947Z,13.49
2019-03-23T12:24:17.938Z,13.55
2019-03-23T12:25:17.928Z,13.70
2019-03-23T12:26:17.909Z,13.63
2019-03-23T12:27:17.909Z,13.64
2019-03-23T12:28:17.873Z,13.60
2019-03-23T12:29:17.890Z,13.70
2019-03-23T12:30:17.859Z,13.64
2019-03-23T12:31:17.826Z,13.60
2019-03-23T12:32:17.814Z,13.63
2019-03-23T12:33:17.790Z,13.64
2019-03-23T12:34:17.775Z,13.64
2019-03-23T12:35:17.784Z,13.69
2019-03-23T12:36:17.742Z,13.70
2019-03-23T12:37:17.733Z,13.75
2019-03-23T12:38:17.705Z,13.73
2019-03-23T12:39:17.696Z,13.67
2019-03-23T12:40:17.672Z,13.70
2019-03-23T12:41:22.970Z,13.46
2019-03-23T12:42:17.680Z,13.49
2019-03-23T12:43:17.638Z,13.60
2019-03-23T12:44:17.614Z,13.45
2019-03-23T12:45:17.603Z,13.42
2019-03-23T12:46:17.577Z,13.48
2019-03-23T12:47:17.555Z,13.44
